Time;durP1;ratioP1;P1;durP2;ratioP2;P2;SDS_P1;SDS_P2;PMS_P1;PMS_P2;Temp;Humidity;BMP_temperature;BMP_pressure;BME280_temperature;BME280_humidity;BME280_pressure;Samples;Min_cycle;Max_cycle;Signal;HPM_P1;HPM_P2
2023/12/20 00:00:04;;;;;;;33.20;20.30;;;;;;;5.04;100.00;100931.25;105647;1253;59807;-76
2023/12/20 00:02:33;;;;;;;30.10;19.90;;;;;;;5.05;100.00;100934.17;105698;1253;60332;-76
2023/12/20 00:05:00;;;;;;;29.30;21.00;;;;;;;5.06;100.00;100938.63;105738;1253;73038;-76
2023/12/20 00:07:26;;;;;;;27.10;20.10;;;;;;;5.09;100.00;100940.46;105733;1253;62519;-78
2023/12/20 00:09:54;;;;;;;25.80;18.70;;;;;;;5.12;100.00;100939.50;105690;1255;71429;-77
2023/12/20 00:12:20;;;;;;;27.40;20.90;;;;;;;5.15;100.00;100939.41;105695;1253;59742;-74
2023/12/20 00:14:47;;;;;;;26.90;19.80;;;;;;;5.18;100.00;100940.69;105676;1253;60361;-76
2023/12/20 00:17:14;;;;;;;31.90;21.00;;;;;;;5.21;100.00;100939.91;105803;1253;73049;-76
2023/12/20 00:19:42;;;;;;;29.70;20.60;;;;;;;5.22;100.00;100935.19;105563;1254;63199;-77
2023/12/20 00:22:08;;;;;;;27.50;19.30;;;;;;;5.23;100.00;100928.93;105724;1257;72650;-79
2023/12/20 00:24:35;;;;;;;25.10;19.50;;;;;;;5.21;100.00;100927.60;105610;1253;61065;-78
2023/12/20 00:27:02;;;;;;;25.70;20.10;;;;;;;5.19;100.00;100929.91;105682;1253;60301;-77
2023/12/20 00:29:29;;;;;;;28.70;20.70;;;;;;;5.18;100.00;100929.96;105684;1253;73119;-76
2023/12/20 00:31:56;;;;;;;27.00;20.50;;;;;;;5.17;100.00;100925.27;105626;1253;63679;-77
2023/12/20 00:34:24;;;;;;;30.10;21.10;;;;;;;5.18;100.00;100921.80;105774;1257;72557;-77
2023/12/20 00:37:11;;;;;;;26.40;20.70;;;;;;;5.18;100.00;100918.15;105984;1252;59774;-74
2023/12/20 00:39:38;;;;;;;29.70;20.60;;;;;;;5.18;100.00;100908.25;105786;1253;60395;-76
2023/12/20 00:42:05;;;;;;;26.20;18.30;;;;;;;5.17;100.00;100909.17;105678;1252;73045;-75
2023/12/20 00:44:33;;;;;;;29.70;20.70;;;;;;;5.16;100.00;100901.94;105790;1253;63893;-77
2023/12/20 00:46:59;;;;;;;30.20;22.60;;;;;;;5.15;100.00;100892.77;105734;1258;72656;-77
2023/12/20 00:49:27;;;;;;;26.00;19.20;;;;;;;5.14;100.00;100895.08;105806;1253;61220;-75
2023/12/20 00:51:53;;;;;;;24.90;18.90;;;;;;;5.10;100.00;100897.27;105767;1253;60053;-75
2023/12/20 00:54:21;;;;;;;25.90;17.80;;;;;;;5.08;100.00;100892.15;105666;1253;72963;-76
2023/12/20 00:56:47;;;;;;;26.40;18.80;;;;;;;5.04;100.00;100895.91;105671;1253;62905;-77
2023/12/20 00:59:16;;;;;;;25.90;18.20;;;;;;;5.01;100.00;100891.86;105722;1257;72453;-76
2023/12/20 01:01:43;;;;;;;28.70;19.40;;;;;;;4.99;100.00;100886.02;105815;1257;61270;-77
2023/12/20 01:04:10;;;;;;;25.70;18.80;;;;;;;4.98;100.00;100881.39;105641;1257;59580;-75
2023/12/20 01:06:37;;;;;;;23.70;18.40;;;;;;;4.97;100.00;100883.30;105772;1252;73046;-76
2023/12/20 01:09:03;;;;;;;25.10;18.50;;;;;;;4.96;100.00;100890.62;105721;1257;63860;-75
2023/12/20 01:11:30;;;;;;;23.70;19.10;;;;;;;4.96;100.00;100895.14;105732;1252;72657;-76
2023/12/20 01:13:58;;;;;;;24.50;18.50;;;;;;;4.95;100.00;100898.27;105741;1253;61291;-76
2023/12/20 01:16:25;;;;;;;24.10;18.50;;;;;;;4.94;100.00;100896.59;105790;1253;60390;-75
2023/12/20 01:18:52;;;;;;;27.70;19.40;;;;;;;4.93;100.00;100893.64;105754;1253;73866;-76
2023/12/20 01:21:19;;;;;;;25.30;20.40;;;;;;;4.93;100.00;100889.15;105665;1253;63034;-77
2023/12/20 01:23:46;;;;;;;25.80;18.60;;;;;;;4.92;100.00;100884.00;105695;1257;72768;-75
2023/12/20 01:26:13;;;;;;;25.00;18.50;;;;;;;4.90;100.00;100876.43;106024;1256;61035;-75
2023/12/20 01:28:40;;;;;;;31.10;20.20;;;;;;;4.89;100.00;100880.98;105613;1253;60346;-77
2023/12/20 01:31:07;;;;;;;27.90;19.10;;;;;;;4.85;100.00;100881.26;105708;1257;73097;-76
2023/12/20 01:33:34;;;;;;;27.10;19.60;;;;;;;4.86;100.00;100885.58;105873;1257;62480;-75
2023/12/20 01:36:00;;;;;;;26.20;19.00;;;;;;;4.87;100.00;100888.33;105722;1253;72646;-79
2023/12/20 01:38:28;;;;;;;26.30;19.20;;;;;;;4.87;100.00;100895.23;105756;1256;60891;-76
2023/12/20 01:40:55;;;;;;;29.00;20.60;;;;;;;4.88;100.00;100900.39;105833;1253;60476;-76
2023/12/20 01:43:22;;;;;;;27.00;19.30;;;;;;;4.90;100.00;100893.42;106875;1256;72900;-75
2023/12/20 01:45:51;;;;;;;25.30;20.10;;;;;;;4.91;100.00;100888.54;107168;1252;64010;-75
2023/12/20 01:48:18;;;;;;;25.90;18.80;;;;;;;4.93;100.00;100893.67;108699;1253;71344;-75
2023/12/20 01:50:45;;;;;;;25.30;18.60;;;;;;;4.95;100.00;100890.65;109383;1252;59709;-74
2023/12/20 01:53:12;;;;;;;24.00;19.40;;;;;;;4.97;100.00;100880.19;106844;1258;59622;-80
2023/12/20 01:55:40;;;;;;;26.90;18.90;;;;;;;4.99;100.00;100877.70;105685;1253;72745;-77
2023/12/20 01:58:09;;;;;;;24.90;19.50;;;;;;;5.01;100.00;100876.09;105577;1253;62736;-77
2023/12/20 02:00:37;;;;;;;26.40;19.40;;;;;;;5.03;100.00;100869.98;105719;1253;71625;-75
2023/12/20 02:03:04;;;;;;;28.20;19.90;;;;;;;5.04;100.00;100863.86;105865;1253;59818;-77
2023/12/20 02:05:32;;;;;;;25.50;19.30;;;;;;;5.04;100.00;100851.72;105834;1257;59763;-76
2023/12/20 02:07:58;;;;;;;28.00;19.10;;;;;;;5.03;100.00;100856.63;105971;1254;71438;-75
2023/12/20 02:10:25;;;;;;;25.20;19.40;;;;;;;5.03;100.00;100857.48;106172;1252;62386;-75
2023/12/20 02:12:52;;;;;;;26.50;19.30;;;;;;;5.03;100.00;100858.70;105927;1258;72585;-77
2023/12/20 02:15:20;;;;;;;26.20;19.20;;;;;;;5.02;100.00;100856.99;105719;1255;59765;-74
2023/12/20 02:17:48;;;;;;;25.80;18.30;;;;;;;5.01;100.00;100852.55;105882;1257;59541;-79
2023/12/20 02:20:15;;;;;;;25.10;19.10;;;;;;;4.99;100.00;100848.77;105753;1257;72857;-76
2023/12/20 02:22:42;;;;;;;24.30;17.80;;;;;;;4.97;100.00;100854.71;105683;1257;63674;-76
2023/12/20 02:25:09;;;;;;;24.80;17.80;;;;;;;4.95;100.00;100850.27;105656;1257;72333;-77
2023/12/20 02:27:35;;;;;;;23.10;17.80;;;;;;;4.96;100.00;100844.71;105801;1257;61053;-77
2023/12/20 02:30:04;;;;;;;26.10;19.00;;;;;;;4.95;100.00;100841.95;105887;1253;60507;-76
2023/12/20 02:32:31;;;;;;;23.00;18.20;;;;;;;4.97;100.00;100834.13;105720;1253;73860;-77
2023/12/20 02:34:58;;;;;;;24.70;18.40;;;;;;;4.96;100.00;100822.35;105674;1258;63775;-77
2023/12/20 02:37:25;;;;;;;23.90;17.60;;;;;;;4.95;100.00;100822.89;105686;1257;72765;-77
2023/12/20 02:39:52;;;;;;;26.50;17.90;;;;;;;4.94;100.00;100819.82;105697;1253;60522;-77
2023/12/20 02:42:19;;;;;;;24.40;18.60;;;;;;;4.93;100.00;100820.20;105734;1253;60338;-77
2023/12/20 02:44:46;;;;;;;23.40;18.10;;;;;;;4.94;100.00;100817.39;105794;1254;73820;-74
2023/12/20 02:47:13;;;;;;;22.00;17.80;;;;;;;4.94;100.00;100814.27;105707;1253;62537;-77
2023/12/20 02:49:40;;;;;;;24.20;18.30;;;;;;;4.94;100.00;100807.70;105727;1253;71628;-77
2023/12/20 02:52:07;;;;;;;19.70;16.30;;;;;;;4.93;100.00;100810.84;105784;1257;61115;-77
2023/12/20 02:54:34;;;;;;;25.40;18.20;;;;;;;4.91;100.00;100812.15;105770;1252;60441;-76
2023/12/20 02:57:00;;;;;;;27.00;17.90;;;;;;;4.91;100.00;100807.98;105685;1253;73621;-75
2023/12/20 02:59:27;;;;;;;26.00;18.20;;;;;;;4.91;100.00;100810.39;105776;1256;63886;-76
2023/12/20 03:01:55;;;;;;;28.20;19.70;;;;;;;4.94;100.00;100808.38;105889;1253;71161;-77
2023/12/20 03:04:22;;;;;;;31.00;20.30;;;;;;;4.96;100.00;100805.37;106148;1257;60547;-75
2023/12/20 03:06:48;;;;;;;24.60;18.80;;;;;;;4.98;100.00;100803.92;106693;1256;60467;-75
2023/12/20 03:09:15;;;;;;;28.20;19.00;;;;;;;5.00;100.00;100804.02;106015;1253;72590;-77
2023/12/20 03:11:42;;;;;;;24.20;16.20;;;;;;;5.02;100.00;100796.19;105761;1253;62447;-77
2023/12/20 03:14:10;;;;;;;21.20;17.80;;;;;;;5.05;100.00;100796.08;105728;1254;71208;-77
2023/12/20 03:16:36;;;;;;;23.30;17.70;;;;;;;5.06;100.00;100798.64;105913;1257;60554;-78
2023/12/20 03:19:03;;;;;;;22.70;17.50;;;;;;;5.07;100.00;100798.44;105882;1257;60444;-76
2023/12/20 03:21:30;;;;;;;26.70;19.20;;;;;;;5.07;100.00;100794.63;105718;1253;73797;-77
2023/12/20 03:23:57;;;;;;;26.70;19.30;;;;;;;5.09;100.00;100784.52;105671;1257;63834;-77
2023/12/20 03:26:24;;;;;;;23.00;17.90;;;;;;;5.08;100.00;100780.20;105629;1253;71330;-77
2023/12/20 03:28:52;;;;;;;25.00;18.50;;;;;;;5.09;100.00;100780.19;105657;1258;60553;-76
2023/12/20 03:31:20;;;;;;;24.10;18.00;;;;;;;5.09;100.00;100779.81;105661;1258;60458;-75
2023/12/20 03:33:47;;;;;;;23.90;18.30;;;;;;;5.09;100.00;100780.52;105802;1253;73828;-77
2023/12/20 03:36:14;;;;;;;23.40;17.60;;;;;;;5.09;100.00;100779.65;105681;1253;62497;-74
2023/12/20 03:38:41;;;;;;;23.50;17.40;;;;;;;5.09;100.00;100781.21;105725;1253;74216;-74
2023/12/20 03:41:08;;;;;;;24.90;18.40;;;;;;;5.09;100.00;100785.89;105824;1253;61084;-75
2023/12/20 03:43:35;;;;;;;25.20;17.30;;;;;;;5.09;100.00;100784.15;106779;1253;60486;-73
2023/12/20 03:46:04;;;;;;;24.60;16.50;;;;;;;5.09;100.00;100789.70;108068;1253;73646;-75
2023/12/20 03:48:31;;;;;;;22.90;18.50;;;;;;;5.08;100.00;100787.98;106121;1254;63965;-75
2023/12/20 03:50:57;;;;;;;23.50;17.10;;;;;;;5.07;100.00;100788.20;105794;1257;71474;-76
2023/12/20 03:53:24;;;;;;;25.50;17.80;;;;;;;5.06;100.00;100781.66;105835;1253;60546;-75
2023/12/20 03:55:51;;;;;;;28.30;18.00;;;;;;;5.04;100.00;100782.45;106048;1253;60439;-75
2023/12/20 03:58:18;;;;;;;26.70;18.00;;;;;;;5.00;100.00;100782.36;105787;1253;73803;-75
2023/12/20 04:00:45;;;;;;;30.40;19.60;;;;;;;4.98;100.00;100793.55;105624;1258;62273;-75
2023/12/20 04:03:14;;;;;;;30.00;20.90;;;;;;;4.95;100.00;100793.29;105816;1253;72587;-78
2023/12/20 04:05:41;;;;;;;24.50;18.20;;;;;;;4.93;100.00;100800.29;105756;1258;60887;-77
2023/12/20 04:08:08;;;;;;;30.70;22.10;;;;;;;4.90;100.00;100790.88;105475;1258;60458;-74
2023/12/20 04:10:35;;;;;;;32.90;21.70;;;;;;;4.88;100.00;100789.19;105688;1253;73628;-75
2023/12/20 04:13:02;;;;;;;31.60;20.40;;;;;;;4.86;100.00;100787.19;105743;1257;62827;-75
2023/12/20 04:15:28;;;;;;;29.50;21.00;;;;;;;4.85;100.00;100793.30;105704;1253;72693;-75
2023/12/20 04:17:55;;;;;;;29.10;20.10;;;;;;;4.84;100.00;100794.17;105766;1253;62143;-73
2023/12/20 04:20:22;;;;;;;27.80;20.30;;;;;;;4.84;100.00;100800.08;105859;1253;60470;-76
2023/12/20 04:22:49;;;;;;;32.60;21.60;;;;;;;4.82;100.00;100804.63;105754;1257;73931;-76
2023/12/20 04:25:16;;;;;;;29.70;19.60;;;;;;;4.82;100.00;100803.95;105555;1258;63838;-78
2023/12/20 04:27:43;;;;;;;29.20;20.00;;;;;;;4.81;100.00;100803.10;105803;1253;71185;-75
2023/12/20 04:30:10;;;;;;;27.20;20.00;;;;;;;4.81;100.00;100805.73;105719;1252;60893;-76
2023/12/20 04:32:37;;;;;;;31.10;21.90;;;;;;;4.80;100.00;100796.73;105819;1253;60464;-76
2023/12/20 04:35:05;;;;;;;32.70;21.80;;;;;;;4.79;100.00;100790.69;105730;1253;72327;-76
2023/12/20 04:37:32;;;;;;;26.70;20.80;;;;;;;4.79;100.00;100790.89;105889;1253;61363;-76
2023/12/20 04:39:59;;;;;;;26.00;18.10;;;;;;;4.79;100.00;100784.84;106159;1257;72839;-73
2023/12/20 04:42:27;;;;;;;25.60;19.40;;;;;;;4.80;100.00;100778.72;106313;1258;60445;-74
2023/12/20 04:44:54;;;;;;;25.90;19.90;;;;;;;4.80;100.00;100784.09;106724;1253;60487;-73
2023/12/20 04:47:22;;;;;;;27.10;19.80;;;;;;;4.80;100.00;100786.36;106090;1252;73647;-76
2023/12/20 04:49:49;;;;;;;26.70;20.00;;;;;;;4.79;100.00;100785.33;106055;1254;62237;-78
2023/12/20 04:52:16;;;;;;;30.20;20.70;;;;;;;4.80;100.00;100787.73;106062;1257;70909;-77
2023/12/20 04:54:43;;;;;;;27.30;20.30;;;;;;;4.81;100.00;100787.90;105756;1257;61081;-76
2023/12/20 04:57:11;;;;;;;29.70;20.90;;;;;;;4.80;100.00;100788.59;105783;1253;60486;-76
2023/12/20 04:59:38;;;;;;;26.70;21.60;;;;;;;4.80;100.00;100787.21;105876;1253;73818;-73
2023/12/20 05:02:05;;;;;;;25.80;19.40;;;;;;;4.77;100.00;100791.63;105846;1257;63868;-74
2023/12/20 05:04:32;;;;;;;26.50;20.10;;;;;;;4.75;100.00;100784.59;105792;1253;72706;-75
2023/12/20 05:07:01;;;;;;;25.60;18.80;;;;;;;4.72;100.00;100786.77;105768;1258;61115;-74
2023/12/20 05:09:28;;;;;;;27.50;20.50;;;;;;;4.70;100.00;100784.94;105786;1258;60396;-74
2023/12/20 05:11:55;;;;;;;25.20;19.20;;;;;;;4.67;100.00;100781.91;105708;1254;73838;-74
2023/12/20 05:14:22;;;;;;;26.90;21.40;;;;;;;4.66;100.00;100777.48;105813;1253;63950;-75
2023/12/20 05:16:51;;;;;;;26.30;19.60;;;;;;;4.64;100.00;100778.04;105729;1253;72928;-76
2023/12/20 05:19:18;;;;;;;26.40;20.20;;;;;;;4.64;100.00;100777.52;105775;1254;60448;-74
2023/12/20 05:21:46;;;;;;;27.90;19.70;;;;;;;4.64;100.00;100771.65;105755;1253;60532;-75
2023/12/20 05:24:12;;;;;;;29.40;22.70;;;;;;;4.64;100.00;100772.15;105724;1257;73725;-76
2023/12/20 05:26:39;;;;;;;27.20;21.10;;;;;;;4.65;100.00;100771.45;105803;1256;63867;-74
2023/12/20 05:29:06;;;;;;;27.00;20.10;;;;;;;4.66;100.00;100770.90;105821;1259;73181;-77
2023/12/20 05:31:33;;;;;;;27.80;22.00;;;;;;;4.67;100.00;100773.60;106175;1253;61128;-75
2023/12/20 05:34:00;;;;;;;31.50;24.80;;;;;;;4.69;100.00;100777.55;106380;1253;60317;-74
2023/12/20 05:36:28;;;;;;;33.90;23.50;;;;;;;4.71;100.00;100778.48;106664;1256;73695;-74
2023/12/20 05:38:55;;;;;;;26.20;19.80;;;;;;;4.73;100.00;100782.94;106938;1253;64315;-76
2023/12/20 05:41:22;;;;;;;30.60;21.00;;;;;;;4.74;100.00;100784.79;108215;1252;72800;-74
2023/12/20 05:43:50;;;;;;;28.10;20.70;;;;;;;4.78;100.00;100791.27;109255;1253;60396;-75
2023/12/20 05:46:17;;;;;;;23.40;18.60;;;;;;;4.81;100.00;100796.52;107315;1252;60337;-74
2023/12/20 05:48:44;;;;;;;24.20;18.00;;;;;;;4.85;100.00;100793.64;106032;1252;72613;-75
2023/12/20 05:51:13;;;;;;;30.00;19.60;;;;;;;4.89;100.00;100798.17;106371;1253;64003;-75
2023/12/20 05:53:40;;;;;;;26.50;18.80;;;;;;;4.94;100.00;100805.61;105774;1253;71398;-74
2023/12/20 05:56:08;;;;;;;24.10;18.50;;;;;;;4.98;100.00;100819.50;105694;1258;61032;-75
2023/12/20 05:58:34;;;;;;;23.70;18.70;;;;;;;5.03;100.00;100823.02;105728;1257;60349;-75
2023/12/20 06:01:04;;;;;;;25.00;19.20;;;;;;;5.06;100.00;100821.86;105825;1258;73914;-75
2023/12/20 06:03:31;;;;;;;23.00;17.70;;;;;;;5.08;100.00;100822.13;105741;1257;62549;-78
2023/12/20 06:05:58;;;;;;;23.90;17.20;;;;;;;5.12;100.00;100819.75;105774;1256;72805;-75
2023/12/20 06:08:40;;;;;;;25.60;18.60;;;;;;;5.16;100.00;100814.23;105818;1257;61115;-75
2023/12/20 06:11:09;;;;;;;24.20;18.40;;;;;;;5.20;100.00;100809.06;105733;1253;60864;-76
2023/12/20 06:13:36;;;;;;;29.70;21.70;;;;;;;5.23;100.00;100807.23;105830;1253;73872;-76
2023/12/20 06:16:07;;;;;;;29.90;21.40;;;;;;;5.26;100.00;100808.02;105829;1258;63344;-74
2023/12/20 06:18:34;;;;;;;26.90;18.80;;;;;;;5.28;100.00;100803.06;105714;1258;72657;-75
2023/12/20 06:21:01;;;;;;;24.40;18.50;;;;;;;5.31;100.00;100804.35;105744;1257;61034;-76
2023/12/20 06:23:29;;;;;;;20.40;17.10;;;;;;;5.33;100.00;100799.44;105791;1253;60426;-76
2023/12/20 06:25:56;;;;;;;22.50;16.80;;;;;;;5.35;100.00;100801.45;105894;1257;73550;-76
2023/12/20 06:28:23;;;;;;;22.00;17.40;;;;;;;5.38;100.00;100800.29;105877;1253;63702;-75
2023/12/20 06:30:52;;;;;;;20.10;16.40;;;;;;;5.42;100.00;100800.86;105741;1258;72706;-76
2023/12/20 06:33:21;;;;;;;21.90;17.30;;;;;;;5.45;100.00;100800.39;105940;1253;61194;-75
2023/12/20 06:35:48;;;;;;;19.90;15.70;;;;;;;5.49;100.00;100808.60;107753;1253;60352;-75
2023/12/20 06:38:18;;;;;;;27.50;19.20;;;;;;;5.53;100.00;100811.03;108997;1252;72493;-77
2023/12/20 06:40:45;;;;;;;23.90;17.90;;;;;;;5.57;100.00;100817.11;105974;1257;62304;-76
2023/12/20 06:43:13;;;;;;;21.40;15.80;;;;;;;5.63;100.00;100817.95;105837;1253;72675;-77
2023/12/20 06:45:59;;;;;;;23.70;17.40;;;;;;;5.67;100.00;100814.16;105817;1257;60473;-76
2023/12/20 06:48:26;;;;;;;21.80;16.40;;;;;;;5.71;100.00;100807.58;105816;1259;60471;-75
2023/12/20 06:50:56;;;;;;;24.50;16.70;;;;;;;5.78;100.00;100810.13;105632;1253;73853;-77
2023/12/20 06:53:23;;;;;;;17.80;14.60;;;;;;;5.83;100.00;100806.30;105693;1253;62405;-76
2023/12/20 06:55:50;;;;;;;19.00;14.80;;;;;;;5.87;100.00;100812.58;105752;1257;72709;-76
2023/12/20 06:58:17;;;;;;;20.80;14.10;;;;;;;5.91;100.00;100803.58;105666;1256;60446;-77
2023/12/20 07:00:43;;;;;;;20.70;13.30;;;;;;;5.97;100.00;100800.95;105777;1257;60442;-75
2023/12/20 07:03:10;;;;;;;18.50;14.80;;;;;;;6.05;100.00;100797.51;105754;1253;73661;-75
2023/12/20 07:05:38;;;;;;;20.00;14.60;;;;;;;6.12;100.00;100791.16;105793;1258;63923;-76
2023/12/20 07:08:07;;;;;;;18.40;14.60;;;;;;;6.17;100.00;100798.08;105763;1253;72486;-78
2023/12/20 07:10:35;;;;;;;16.90;14.30;;;;;;;6.22;100.00;100794.07;105826;1257;60429;-75
2023/12/20 07:13:02;;;;;;;17.90;13.00;;;;;;;6.27;100.00;100787.27;105766;1255;60429;-78
2023/12/20 07:15:29;;;;;;;20.80;14.50;;;;;;;6.30;100.00;100783.67;105726;1253;73681;-74
2023/12/20 07:17:56;;;;;;;17.70;13.50;;;;;;;6.33;100.00;100784.25;105796;1257;64074;-75
2023/12/20 07:20:23;;;;;;;20.90;12.80;;;;;;;6.35;100.00;100771.88;105718;1253;72786;-77
2023/12/20 07:22:51;;;;;;;21.30;14.60;;;;;;;6.37;100.00;100780.29;105768;1257;61114;-74
2023/12/20 07:25:18;;;;;;;23.90;17.10;;;;;;;6.39;100.00;100781.77;105641;1256;60441;-76
2023/12/20 07:27:45;;;;;;;21.90;14.20;;;;;;;6.41;100.00;100775.10;105678;1257;73874;-76
2023/12/20 07:30:13;;;;;;;18.70;14.10;;;;;;;6.44;100.00;100772.55;105733;1256;63851;-73
2023/12/20 07:32:40;;;;;;;18.50;14.00;;;;;;;6.48;100.00;100773.63;105693;1257;72489;-76
2023/12/20 07:35:07;;;;;;;20.40;15.30;;;;;;;6.52;100.00;100768.73;105712;1257;60572;-76
2023/12/20 07:37:34;;;;;;;19.40;15.10;;;;;;;6.57;100.00;100761.95;105757;1253;60525;-78
2023/12/20 07:40:01;;;;;;;18.00;11.90;;;;;;;6.61;100.00;100763.15;105755;1253;73819;-76
2023/12/20 07:42:28;;;;;;;19.00;14.40;;;;;;;6.65;100.00;100761.27;105623;1258;63733;-78
2023/12/20 07:44:55;;;;;;;17.00;14.50;;;;;;;6.70;100.00;100765.04;105669;1253;72808;-78
2023/12/20 07:47:23;;;;;;;17.60;13.80;;;;;;;6.76;100.00;100771.92;105801;1258;61246;-77
2023/12/20 07:49:51;;;;;;;18.90;15.50;;;;;;;6.83;100.00;100771.11;105712;1253;60488;-77
2023/12/20 07:52:19;;;;;;;20.00;13.70;;;;;;;6.89;100.00;100777.98;105801;1259;73807;-78
2023/12/20 07:54:45;;;;;;;18.40;12.70;;;;;;;6.95;100.00;100779.98;105665;1258;63915;-78
2023/12/20 07:57:12;;;;;;;21.00;14.00;;;;;;;7.01;100.00;100779.73;105557;1253;71789;-77
2023/12/20 07:59:40;;;;;;;17.90;13.40;;;;;;;7.06;100.00;100774.48;105953;1257;61146;-77
2023/12/20 08:02:07;;;;;;;19.70;14.90;;;;;;;7.09;100.00;100767.40;105828;1253;60491;-75
2023/12/20 08:04:34;;;;;;;20.00;16.40;;;;;;;7.13;100.00;100769.69;105692;1253;73979;-77
2023/12/20 08:07:02;;;;;;;18.20;14.00;;;;;;;7.16;100.00;100762.91;105799;1258;64623;-80
2023/12/20 08:09:29;;;;;;;21.10;14.00;;;;;;;7.19;100.00;100763.86;105662;1253;71532;-77
2023/12/20 08:11:56;;;;;;;22.90;15.50;;;;;;;7.23;100.00;100759.84;105692;1257;60461;-76
2023/12/20 08:14:23;;;;;;;20.60;14.90;;;;;;;7.27;100.00;100755.12;105711;1257;60445;-75
2023/12/20 08:16:50;;;;;;;20.30;16.50;;;;;;;7.30;100.00;100744.41;105748;1257;73844;-76
2023/12/20 08:19:17;;;;;;;23.50;16.50;;;;;;;7.32;100.00;100743.63;105682;1257;63582;-76
2023/12/20 08:21:45;;;;;;;25.30;15.90;;;;;;;7.34;100.00;100751.00;105718;1253;72736;-76
2023/12/20 08:24:15;;;;;;;23.30;16.00;;;;;;;7.35;100.00;100752.16;105752;1256;61498;-78
2023/12/20 08:26:42;;;;;;;24.90;16.10;;;;;;;7.36;100.00;100747.80;105747;1253;60464;-79
2023/12/20 08:29:10;;;;;;;21.60;16.30;;;;;;;7.38;100.00;100738.30;105715;1256;73836;-79
2023/12/20 08:31:37;;;;;;;19.80;14.80;;;;;;;7.40;100.00;100729.18;105789;1257;63692;-77
2023/12/20 08:34:04;;;;;;;20.30;15.00;;;;;;;7.39;100.00;100725.77;105752;1257;72570;-77
2023/12/20 08:36:34;;;;;;;20.70;14.20;;;;;;;7.39;100.00;100725.76;105692;1257;61191;-78
2023/12/20 08:39:03;;;;;;;19.60;14.10;;;;;;;7.38;100.00;100716.59;105886;1253;60428;-78
2023/12/20 08:41:30;;;;;;;20.70;16.40;;;;;;;7.39;100.00;100712.17;105691;1256;73874;-77
2023/12/20 08:43:58;;;;;;;22.70;14.60;;;;;;;7.43;100.00;100712.19;105718;1257;63910;-78
2023/12/20 08:46:28;;;;;;;18.00;14.10;;;;;;;7.46;100.00;100712.38;105749;1258;72833;-77
2023/12/20 08:48:55;;;;;;;20.80;15.10;;;;;;;7.49;100.00;100711.88;105887;1257;60439;-77
2023/12/20 08:51:23;;;;;;;20.10;12.70;;;;;;;7.55;100.00;100705.73;105788;1257;60552;-77
2023/12/20 08:53:51;;;;;;;20.60;15.30;;;;;;;7.57;100.00;100708.06;105756;1259;73859;-78
2023/12/20 08:56:18;;;;;;;18.50;14.40;;;;;;;7.59;100.00;100709.72;105742;1253;62742;-77
2023/12/20 08:58:46;;;;;;;20.40;13.30;;;;;;;7.60;100.00;100707.91;105768;1253;72801;-76
2023/12/20 09:01:14;;;;;;;18.90;14.80;;;;;;;7.61;100.00;100708.39;105710;1257;60985;-76
2023/12/20 09:03:41;;;;;;;20.30;15.40;;;;;;;7.61;100.00;100711.38;105970;1257;60432;-77
2023/12/20 09:06:08;;;;;;;21.70;15.60;;;;;;;7.61;100.00;100708.04;105885;1254;73709;-76
2023/12/20 09:08:35;;;;;;;21.60;15.40;;;;;;;7.61;100.00;100702.29;105756;1257;63894;-75
2023/12/20 09:11:02;;;;;;;20.10;13.90;;;;;;;7.63;100.00;100702.05;105782;1258;72631;-78
2023/12/20 09:13:31;;;;;;;20.70;14.70;;;;;;;7.64;100.00;100704.41;106059;1253;61242;-75
2023/12/20 09:15:58;;;;;;;16.70;12.70;;;;;;;7.64;100.00;100700.56;106117;1254;60549;-77
2023/12/20 09:18:30;;;;;;;19.00;12.80;;;;;;;7.65;100.00;100704.38;105730;1257;74815;-79
2023/12/20 09:20:58;;;;;;;17.50;13.30;;;;;;;7.63;100.00;100700.10;106027;1257;64309;-75
2023/12/20 09:23:25;;;;;;;19.20;13.10;;;;;;;7.60;100.00;100698.52;106053;1257;74013;-76
2023/12/20 09:25:56;;;;;;;19.70;14.80;;;;;;;7.57;100.00;100698.84;105704;1253;61251;-78
2023/12/20 09:28:24;;;;;;;17.80;13.90;;;;;;;7.55;100.00;100691.77;105805;1259;60358;-77
2023/12/20 09:30:51;;;;;;;17.10;12.40;;;;;;;7.57;100.00;100696.05;106772;1253;72966;-76
2023/12/20 09:33:18;;;;;;;15.60;11.90;;;;;;;7.57;100.00;100697.94;107341;1256;62620;-75
2023/12/20 09:35:45;;;;;;;13.90;11.50;;;;;;;7.58;100.00;100698.94;107804;1253;71485;-75
2023/12/20 09:38:17;;;;;;;14.90;11.70;;;;;;;7.58;100.00;100699.29;108245;1258;61638;-76
2023/12/20 09:40:44;;;;;;;14.40;12.10;;;;;;;7.57;100.00;100692.25;106475;1256;61692;-77
2023/12/20 09:43:13;;;;;;;16.50;12.00;;;;;;;7.58;100.00;100684.71;105825;1254;73741;-77
2023/12/20 09:45:41;;;;;;;13.10;10.70;;;;;;;7.60;100.00;100685.84;105925;1257;62681;-78
2023/12/20 09:48:08;;;;;;;16.40;11.50;;;;;;;7.61;100.00;100678.29;105790;1259;72784;-78
2023/12/20 09:50:35;;;;;;;13.50;11.30;;;;;;;7.63;100.00;100670.20;105658;1257;61612;-79
2023/12/20 09:53:04;;;;;;;15.30;11.70;;;;;;;7.65;100.00;100667.66;105625;1253;61192;-77
2023/12/20 09:55:33;;;;;;;14.50;12.10;;;;;;;7.67;100.00;100661.13;105831;1256;73873;-79
2023/12/20 09:58:01;;;;;;;15.50;12.10;;;;;;;7.69;100.00;100653.73;105792;1266;63872;-77
2023/12/20 10:00:28;;;;;;;13.40;11.10;;;;;;;7.73;100.00;100647.80;105844;1253;73225;-76
2023/12/20 10:02:57;;;;;;;15.80;11.40;;;;;;;7.76;100.00;100644.17;105706;1254;60556;-77
2023/12/20 10:05:28;;;;;;;15.60;10.80;;;;;;;7.77;100.00;100640.83;105831;1257;60442;-78
2023/12/20 10:07:57;;;;;;;12.70;10.50;;;;;;;7.80;100.00;100644.88;105732;1257;72816;-78
2023/12/20 10:10:25;;;;;;;15.00;11.90;;;;;;;7.82;100.00;100648.56;105674;1253;61956;-77
2023/12/20 10:13:10;;;;;;;13.00;10.20;;;;;;;7.88;100.00;100644.09;105741;1259;73636;-77
2023/12/20 10:15:40;;;;;;;16.90;12.30;;;;;;;7.95;100.00;100642.55;105733;1258;61425;-77
2023/12/20 10:18:08;;;;;;;14.90;10.90;;;;;;;8.02;100.00;100640.30;105759;1257;60454;-78
2023/12/20 10:20:40;;;;;;;11.80;9.80;;;;;;;8.11;100.00;100640.39;105737;1257;73690;-78
2023/12/20 10:23:06;;;;;;;16.00;11.50;;;;;;;8.21;100.00;100640.79;105754;1257;62320;-78
2023/12/20 10:25:33;;;;;;;14.60;11.70;;;;;;;8.27;100.00;100642.70;105719;1257;71904;-78
2023/12/20 10:28:14;;;;;;;14.50;11.20;;;;;;;8.33;100.00;100640.17;105874;1256;60464;-78
2023/12/20 10:30:42;;;;;;;12.70;10.80;;;;;;;8.39;100.00;100642.14;105721;1267;218240;-77
2023/12/20 10:35:24;;;;;;;12.80;10.30;;;;;;;8.52;100.00;100645.49;102359;1293;615435;-78
2023/12/20 10:37:54;;;;;;;14.20;11.50;;;;;;;8.53;100.00;100649.46;104917;1266;60490;-76
2023/12/20 10:40:20;;;;;;;14.90;11.90;;;;;;;8.53;100.00;100650.20;104936;1267;60312;-78
2023/12/20 10:42:47;;;;;;;14.20;10.90;;;;;;;8.53;100.00;100640.94;104840;1266;71338;-76
2023/12/20 10:45:16;;;;;;;13.60;10.70;;;;;;;8.56;100.00;100636.09;105845;1264;63069;-75
2023/12/20 10:47:46;;;;;;;12.90;10.30;;;;;;;8.62;100.00;100629.67;105169;1257;182437;-78
2023/12/20 10:50:13;;;;;;;12.50;9.30;;;;;;;8.68;100.00;100619.39;105392;1263;62179;-77
2023/12/20 10:52:40;;;;;;;13.80;10.80;;;;;;;8.73;100.00;100615.65;105369;1257;59838;-78
2023/12/20 10:55:08;;;;;;;16.70;13.50;;;;;;;8.78;100.00;100614.02;105511;1257;73627;-77
2023/12/20 10:57:36;;;;;;;12.30;10.10;;;;;;;8.85;100.00;100611.54;105265;1264;63468;-78
2023/12/20 11:00:04;;;;;;;10.50;8.80;;;;;;;8.90;100.00;100609.52;105324;1260;70657;-76
2023/12/20 11:02:32;;;;;;;8.70;7.80;;;;;;;8.90;100.00;100612.67;105465;1257;60788;-75
2023/12/20 11:05:11;;;;;;;11.90;10.20;;;;;;;8.86;100.00;100610.29;105469;1261;59991;-77